Hawkins, TX

11:42 AM CST on December 28, 2014 (GMT -0600)
Fouke | Change Station
CLOSE
Current Station
Personal Weather Station
Location: Hawkins, TX
Elevation: 374 ft
Nearby Weather Stations

Elev 374 ft 32.61 °N, 95.27 °W | Updated 5 minutes ago

Rain
Rain
37.9 °F
Feels Like 38 °F
N
1.1
Wind Variable Wind from SE

Today
High -- | Low -- °F
--% Chance of Precip.
Yesterday
High -- | Low -- °F
Precip. -- in
7:21 AM 5:23 PM
Waxing Crescent, 49% visible
Pressure 30.23 in
Visibility 10.0 miles
Clouds Scattered Clouds 1800 ft
Scattered Clouds 3600 ft
Overcast 9000 ft
Windchill 38 °F
Dew Point 34 °F
Humidity 86%
Rainfall 0.00 in
Snow Depth Not available.
UV 1 out of 12
Pollen .50 out of 12
Air Quality Not available.
Flu Activity Not available.
METAR KJXI 281735Z AUTO 32006KT 10SM -RA SCT018 SCT036 OVC090 02/00 A3023 RMK AO2 T00230000

More Conditions Fewer Conditions

Pressure 30.23 in
Visibility 10.0 miles
Clouds Scattered Clouds 1800 ft
Scattered Clouds 3600 ft
Overcast 9000 ft
Windchill 38 °F
Dew Point 34 °F
Humidity 86%
Rainfall 0.00 in
Snow Depth Not available.
UV 1 out of 12
Pollen .50 out of 12
Air Quality Not available.
Flu Activity Not available.
METAR KJXI 281735Z AUTO 32006KT 10SM -RA SCT018 SCT036 OVC090 02/00 A3023 RMK AO2 T00230000

More Conditions Fewer Conditions

10-Day Weather Forecast

Almanac

Astronomy

Dec. 28, 2014 Rise Set
Actual Time
Civil Twilight
Nautical Twilight
Astronomical Twilight
Moon
Length of Visible Light
Length of Day
Tomorrow will be .
, % of the Moon is Illuminated

Today's Extremes

State Highs State Lows

Community

WunderPhotos

Upload Photos

1,781,367 photos uploaded!

WunderBlogs® & News

Nearby

Air Quality

  Air Quality AQ Index Pollutant
Not available.

Snow Depth

Station Depth Elevation

Earthquake Activity

City Distance Mag. Time & Date
Minimum magnitude displayed is 2.5.

Coastal Water Temperatures

Place Temperature

Nearby Weather Stations